sensor_id;sensor_type;location;lat;lon;timestamp;P1;durP1;ratioP1;P2;durP2;ratioP2
21103;SDS011;10710;53.398;-1.514;2023-05-14T00:54:45;24.48;;;10.70;;
21103;SDS011;10710;53.398;-1.514;2023-05-14T00:57:30;21.70;;;10.15;;
21103;SDS011;10710;53.398;-1.514;2023-05-14T01:00:16;21.40;;;10.67;;
21103;SDS011;10710;53.398;-1.514;2023-05-14T01:03:02;24.70;;;11.65;;
21103;SDS011;10710;53.398;-1.514;2023-05-14T01:12:02;23.85;;;11.05;;
21103;SDS011;10710;53.398;-1.514;2023-05-14T01:14:58;22.52;;;10.82;;
21103;SDS011;10710;53.398;-1.514;2023-05-14T01:17:45;25.95;;;10.60;;
21103;SDS011;10710;53.398;-1.514;2023-05-14T01:20:32;27.33;;;10.50;;
21103;SDS011;10710;53.398;-1.514;2023-05-14T01:23:17;25.73;;;10.60;;
21103;SDS011;10710;53.398;-1.514;2023-05-14T01:26:01;23.63;;;10.25;;
21103;SDS011;10710;53.398;-1.514;2023-05-14T01:28:46;22.58;;;10.45;;
21103;SDS011;10710;53.398;-1.514;2023-05-14T01:31:31;22.35;;;10.90;;
21103;SDS011;10710;53.398;-1.514;2023-05-14T01:34:20;19.75;;;9.70;;
21103;SDS011;10710;53.398;-1.514;2023-05-14T01:37:06;22.27;;;9.77;;
21103;SDS011;10710;53.398;-1.514;2023-05-14T01:39:51;21.40;;;10.40;;
21103;SDS011;10710;53.398;-1.514;2023-05-14T01:42:37;23.30;;;10.45;;
21103;SDS011;10710;53.398;-1.514;2023-05-14T01:45:24;24.15;;;10.55;;
21103;SDS011;10710;53.398;-1.514;2023-05-14T01:48:09;22.27;;;10.43;;
21103;SDS011;10710;53.398;-1.514;2023-05-14T01:50:54;21.30;;;9.25;;
21103;SDS011;10710;53.398;-1.514;2023-05-14T01:53:39;22.50;;;9.80;;
21103;SDS011;10710;53.398;-1.514;2023-05-14T01:56:24;22.92;;;10.32;;
21103;SDS011;10710;53.398;-1.514;2023-05-14T01:59:09;24.77;;;10.03;;
21103;SDS011;10710;53.398;-1.514;2023-05-14T02:01:54;22.95;;;9.52;;
21103;SDS011;10710;53.398;-1.514;2023-05-14T02:04:39;22.77;;;9.35;;
21103;SDS011;10710;53.398;-1.514;2023-05-14T02:07:23;28.38;;;12.18;;
21103;SDS011;10710;53.398;-1.514;2023-05-14T02:10:08;19.80;;;9.93;;
21103;SDS011;10710;53.398;-1.514;2023-05-14T02:12:53;17.50;;;9.23;;
21103;SDS011;10710;53.398;-1.514;2023-05-14T02:15:38;22.63;;;9.40;;
21103;SDS011;10710;53.398;-1.514;2023-05-14T02:18:23;23.25;;;10.07;;
21103;SDS011;10710;53.398;-1.514;2023-05-14T02:21:08;18.00;;;9.77;;
21103;SDS011;10710;53.398;-1.514;2023-05-14T02:23:55;18.92;;;8.45;;
21103;SDS011;10710;53.398;-1.514;2023-05-14T02:26:40;18.98;;;8.93;;
21103;SDS011;10710;53.398;-1.514;2023-05-14T02:29:25;21.05;;;9.18;;
21103;SDS011;10710;53.398;-1.514;2023-05-14T02:32:10;19.05;;;9.02;;
21103;SDS011;10710;53.398;-1.514;2023-05-14T02:34:55;22.70;;;9.40;;
21103;SDS011;10710;53.398;-1.514;2023-05-14T02:37:40;18.77;;;9.13;;
21103;SDS011;10710;53.398;-1.514;2023-05-14T02:40:24;19.23;;;9.40;;
21103;SDS011;10710;53.398;-1.514;2023-05-14T02:43:09;21.80;;;10.00;;
21103;SDS011;10710;53.398;-1.514;2023-05-14T02:45:54;19.30;;;9.98;;
21103;SDS011;10710;53.398;-1.514;2023-05-14T02:48:38;24.73;;;10.70;;
21103;SDS011;10710;53.398;-1.514;2023-05-14T02:51:23;19.90;;;8.88;;
21103;SDS011;10710;53.398;-1.514;2023-05-14T02:54:09;23.83;;;10.07;;
21103;SDS011;10710;53.398;-1.514;2023-05-14T02:56:54;21.80;;;9.52;;
21103;SDS011;10710;53.398;-1.514;2023-05-14T02:59:38;23.42;;;8.57;;
21103;SDS011;10710;53.398;-1.514;2023-05-14T03:02:23;23.65;;;10.30;;
21103;SDS011;10710;53.398;-1.514;2023-05-14T03:05:08;22.48;;;10.07;;
21103;SDS011;10710;53.398;-1.514;2023-05-14T03:07:52;27.38;;;10.80;;
21103;SDS011;10710;53.398;-1.514;2023-05-14T03:10:38;22.27;;;9.43;;
21103;SDS011;10710;53.398;-1.514;2023-05-14T03:13:23;25.95;;;9.80;;
21103;SDS011;10710;53.398;-1.514;2023-05-14T03:16:08;29.95;;;10.50;;
21103;SDS011;10710;53.398;-1.514;2023-05-14T03:18:54;25.08;;;10.32;;
21103;SDS011;10710;53.398;-1.514;2023-05-14T03:21:38;26.40;;;10.87;;
21103;SDS011;10710;53.398;-1.514;2023-05-14T03:24:24;26.73;;;11.00;;
21103;SDS011;10710;53.398;-1.514;2023-05-14T03:27:08;25.13;;;10.30;;
21103;SDS011;10710;53.398;-1.514;2023-05-14T03:29:53;30.38;;;11.75;;
21103;SDS011;10710;53.398;-1.514;2023-05-14T03:32:38;29.38;;;11.38;;
21103;SDS011;10710;53.398;-1.514;2023-05-14T03:35:23;28.10;;;10.30;;
21103;SDS011;10710;53.398;-1.514;2023-05-14T03:38:08;21.30;;;9.57;;
21103;SDS011;10710;53.398;-1.514;2023-05-14T03:40:53;25.20;;;10.15;;
21103;SDS011;10710;53.398;-1.514;2023-05-14T03:43:37;25.05;;;9.95;;
21103;SDS011;10710;53.398;-1.514;2023-05-14T03:46:22;23.23;;;8.35;;
21103;SDS011;10710;53.398;-1.514;2023-05-14T03:49:07;24.75;;;10.10;;
21103;SDS011;10710;53.398;-1.514;2023-05-14T03:51:51;19.73;;;8.77;;
21103;SDS011;10710;53.398;-1.514;2023-05-14T03:54:36;20.17;;;8.53;;
21103;SDS011;10710;53.398;-1.514;2023-05-14T03:57:21;21.20;;;9.63;;
21103;SDS011;10710;53.398;-1.514;2023-05-14T04:00:06;21.83;;;9.00;;
21103;SDS011;10710;53.398;-1.514;2023-05-14T04:02:51;20.40;;;9.32;;
21103;SDS011;10710;53.398;-1.514;2023-05-14T04:05:35;22.48;;;8.88;;
21103;SDS011;10710;53.398;-1.514;2023-05-14T04:08:20;18.63;;;9.03;;
21103;SDS011;10710;53.398;-1.514;2023-05-14T04:11:05;23.10;;;9.57;;
21103;SDS011;10710;53.398;-1.514;2023-05-14T04:13:49;22.77;;;9.88;;
21103;SDS011;10710;53.398;-1.514;2023-05-14T04:16:35;20.52;;;8.63;;
21103;SDS011;10710;53.398;-1.514;2023-05-14T04:19:19;17.83;;;8.17;;
21103;SDS011;10710;53.398;-1.514;2023-05-14T04:22:04;16.70;;;8.07;;
21103;SDS011;10710;53.398;-1.514;2023-05-14T04:24:49;18.20;;;8.25;;
21103;SDS011;10710;53.398;-1.514;2023-05-14T04:27:34;21.83;;;8.00;;
21103;SDS011;10710;53.398;-1.514;2023-05-14T04:30:19;18.08;;;8.50;;
21103;SDS011;10710;53.398;-1.514;2023-05-14T04:33:03;20.20;;;8.00;;
21103;SDS011;10710;53.398;-1.514;2023-05-14T04:35:49;20.25;;;8.18;;
21103;SDS011;10710;53.398;-1.514;2023-05-14T04:38:34;21.20;;;9.27;;
21103;SDS011;10710;53.398;-1.514;2023-05-14T04:41:19;24.47;;;8.63;;
21103;SDS011;10710;53.398;-1.514;2023-05-14T04:44:03;20.90;;;9.27;;
21103;SDS011;10710;53.398;-1.514;2023-05-14T04:46:51;13.57;;;7.15;;
21103;SDS011;10710;53.398;-1.514;2023-05-14T04:49:44;29.83;;;9.50;;
21103;SDS011;10710;53.398;-1.514;2023-05-14T04:52:29;18.13;;;7.90;;
21103;SDS011;10710;53.398;-1.514;2023-05-14T04:55:20;20.52;;;7.90;;
21103;SDS011;10710;53.398;-1.514;2023-05-14T04:58:08;21.08;;;7.35;;
21103;SDS011;10710;53.398;-1.514;2023-05-14T05:01:06;20.67;;;8.35;;
21103;SDS011;10710;53.398;-1.514;2023-05-14T05:04:02;21.27;;;9.82;;
21103;SDS011;10710;53.398;-1.514;2023-05-14T05:06:54;21.73;;;8.68;;
21103;SDS011;10710;53.398;-1.514;2023-05-14T05:09:42;17.90;;;8.27;;
21103;SDS011;10710;53.398;-1.514;2023-05-14T05:13:00;22.42;;;8.65;;
21103;SDS011;10710;53.398;-1.514;2023-05-14T05:15:50;18.33;;;8.50;;
